sensor_id;sensor_type;location;lat;lon;timestamp;P1;durP1;ratioP1;P2;durP2;ratioP2
14088;SDS011;7120;52.890;6.040;2022-09-21T00:00:03;22.17;;;10.80;;
14088;SDS011;7120;52.890;6.040;2022-09-21T00:02:29;16.70;;;10.37;;
14088;SDS011;7120;52.890;6.040;2022-09-21T00:04:54;20.23;;;11.33;;
14088;SDS011;7120;52.890;6.040;2022-09-21T00:07:20;18.33;;;10.80;;
14088;SDS011;7120;52.890;6.040;2022-09-21T00:09:45;14.50;;;9.60;;
14088;SDS011;7120;52.890;6.040;2022-09-21T00:12:11;17.93;;;10.17;;
14088;SDS011;7120;52.890;6.040;2022-09-21T00:14:36;19.80;;;9.97;;
14088;SDS011;7120;52.890;6.040;2022-09-21T00:17:02;16.37;;;9.67;;
14088;SDS011;7120;52.890;6.040;2022-09-21T00:19:27;18.40;;;9.63;;
14088;SDS011;7120;52.890;6.040;2022-09-21T00:21:53;19.70;;;9.63;;
14088;SDS011;7120;52.890;6.040;2022-09-21T00:24:20;20.07;;;10.47;;
14088;SDS011;7120;52.890;6.040;2022-09-21T00:26:45;20.30;;;10.37;;
14088;SDS011;7120;52.890;6.040;2022-09-21T00:29:10;19.53;;;10.33;;
14088;SDS011;7120;52.890;6.040;2022-09-21T00:31:38;22.43;;;11.63;;
14088;SDS011;7120;52.890;6.040;2022-09-21T00:34:04;22.47;;;11.30;;
14088;SDS011;7120;52.890;6.040;2022-09-21T00:36:31;20.20;;;11.80;;
14088;SDS011;7120;52.890;6.040;2022-09-21T00:38:58;21.50;;;10.47;;
14088;SDS011;7120;52.890;6.040;2022-09-21T00:41:26;23.33;;;12.80;;
14088;SDS011;7120;52.890;6.040;2022-09-21T00:46:57;23.70;;;12.03;;
14088;SDS011;7120;52.890;6.040;2022-09-21T00:49:28;24.40;;;12.33;;
14088;SDS011;7120;52.890;6.040;2022-09-21T00:51:55;21.87;;;11.27;;
14088;SDS011;7120;52.890;6.040;2022-09-21T00:54:27;26.20;;;12.37;;
14088;SDS011;7120;52.890;6.040;2022-09-21T00:56:57;21.53;;;11.47;;
14088;SDS011;7120;52.890;6.040;2022-09-21T00:59:27;17.77;;;10.83;;
14088;SDS011;7120;52.890;6.040;2022-09-21T01:01:55;22.47;;;11.57;;
14088;SDS011;7120;52.890;6.040;2022-09-21T01:04:22;18.73;;;10.60;;
14088;SDS011;7120;52.890;6.040;2022-09-21T01:06:48;17.33;;;9.17;;
14088;SDS011;7120;52.890;6.040;2022-09-21T01:09:14;21.27;;;10.83;;
14088;SDS011;7120;52.890;6.040;2022-09-21T01:12:02;19.13;;;9.87;;
14088;SDS011;7120;52.890;6.040;2022-09-21T01:17:45;15.10;;;8.83;;
14088;SDS011;7120;52.890;6.040;2022-09-21T01:32:29;15.70;;;10.10;;
14088;SDS011;7120;52.890;6.040;2022-09-21T01:34:40;17.23;;;9.97;;
14088;SDS011;7120;52.890;6.040;2022-09-21T01:37:18;20.37;;;10.93;;
14088;SDS011;7120;52.890;6.040;2022-09-21T01:39:49;22.00;;;11.80;;
14088;SDS011;7120;52.890;6.040;2022-09-21T01:42:20;26.10;;;12.27;;
14088;SDS011;7120;52.890;6.040;2022-09-21T01:44:48;19.93;;;12.33;;
14088;SDS011;7120;52.890;6.040;2022-09-21T01:47:14;28.80;;;13.70;;
14088;SDS011;7120;52.890;6.040;2022-09-21T01:49:45;26.13;;;12.43;;
14088;SDS011;7120;52.890;6.040;2022-09-21T01:52:16;25.17;;;13.20;;
14088;SDS011;7120;52.890;6.040;2022-09-21T01:54:54;21.43;;;13.03;;
14088;SDS011;7120;52.890;6.040;2022-09-21T01:59:56;30.73;;;12.60;;
14088;SDS011;7120;52.890;6.040;2022-09-21T02:02:24;23.07;;;12.00;;
14088;SDS011;7120;52.890;6.040;2022-09-21T02:05:01;20.43;;;11.73;;
14088;SDS011;7120;52.890;6.040;2022-09-21T02:07:29;21.17;;;11.13;;
14088;SDS011;7120;52.890;6.040;2022-09-21T02:09:57;21.87;;;11.40;;
14088;SDS011;7120;52.890;6.040;2022-09-21T02:12:25;21.23;;;11.07;;
14088;SDS011;7120;52.890;6.040;2022-09-21T02:14:50;21.50;;;10.90;;
14088;SDS011;7120;52.890;6.040;2022-09-21T02:31:35;17.60;;;8.90;;
14088;SDS011;7120;52.890;6.040;2022-09-21T02:37:04;20.43;;;9.13;;
14088;SDS011;7120;52.890;6.040;2022-09-21T02:39:37;16.20;;;8.50;;
14088;SDS011;7120;52.890;6.040;2022-09-21T02:42:43;17.20;;;9.20;;
14088;SDS011;7120;52.890;6.040;2022-09-21T02:45:18;15.70;;;9.03;;
14088;SDS011;7120;52.890;6.040;2022-09-21T02:47:59;17.90;;;9.43;;
14088;SDS011;7120;52.890;6.040;2022-09-21T02:50:39;14.40;;;8.90;;
14088;SDS011;7120;52.890;6.040;2022-09-21T02:53:08;15.50;;;8.40;;
14088;SDS011;7120;52.890;6.040;2022-09-21T02:55:36;14.57;;;8.53;;
14088;SDS011;7120;52.890;6.040;2022-09-21T02:58:04;14.03;;;7.80;;
14088;SDS011;7120;52.890;6.040;2022-09-21T03:00:33;14.63;;;8.03;;
14088;SDS011;7120;52.890;6.040;2022-09-21T03:03:00;15.03;;;7.77;;
14088;SDS011;7120;52.890;6.040;2022-09-21T03:05:41;12.90;;;7.50;;
14088;SDS011;7120;52.890;6.040;2022-09-21T03:08:07;13.40;;;7.80;;
14088;SDS011;7120;52.890;6.040;2022-09-21T03:10:32;11.40;;;7.60;;
14088;SDS011;7120;52.890;6.040;2022-09-21T03:12:59;12.37;;;8.20;;
14088;SDS011;7120;52.890;6.040;2022-09-21T03:15:25;14.97;;;7.93;;
14088;SDS011;7120;52.890;6.040;2022-09-21T03:17:51;13.73;;;7.27;;
14088;SDS011;7120;52.890;6.040;2022-09-21T03:20:17;16.67;;;7.93;;
14088;SDS011;7120;52.890;6.040;2022-09-21T03:22:42;13.60;;;8.13;;
14088;SDS011;7120;52.890;6.040;2022-09-21T03:25:08;15.20;;;8.47;;
14088;SDS011;7120;52.890;6.040;2022-09-21T03:27:37;12.07;;;8.30;;
14088;SDS011;7120;52.890;6.040;2022-09-21T03:30:02;11.30;;;7.40;;
14088;SDS011;7120;52.890;6.040;2022-09-21T03:32:28;11.00;;;7.93;;
14088;SDS011;7120;52.890;6.040;2022-09-21T03:34:53;11.70;;;8.23;;
14088;SDS011;7120;52.890;6.040;2022-09-21T03:37:19;11.17;;;8.07;;
14088;SDS011;7120;52.890;6.040;2022-09-21T03:39:44;12.50;;;7.87;;
14088;SDS011;7120;52.890;6.040;2022-09-21T03:42:11;12.27;;;7.37;;
14088;SDS011;7120;52.890;6.040;2022-09-21T03:44:38;11.23;;;7.40;;
14088;SDS011;7120;52.890;6.040;2022-09-21T03:47:05;12.93;;;7.83;;
14088;SDS011;7120;52.890;6.040;2022-09-21T03:49:30;11.60;;;7.03;;
14088;SDS011;7120;52.890;6.040;2022-09-21T03:51:56;10.87;;;6.77;;
14088;SDS011;7120;52.890;6.040;2022-09-21T03:54:22;9.60;;;6.73;;
14088;SDS011;7120;52.890;6.040;2022-09-21T03:56:47;9.77;;;6.73;;
14088;SDS011;7120;52.890;6.040;2022-09-21T03:59:12;12.67;;;7.10;;
14088;SDS011;7120;52.890;6.040;2022-09-21T04:01:38;11.83;;;6.87;;
14088;SDS011;7120;52.890;6.040;2022-09-21T04:04:03;10.67;;;6.97;;
14088;SDS011;7120;52.890;6.040;2022-09-21T04:06:29;10.30;;;6.93;;
14088;SDS011;7120;52.890;6.040;2022-09-21T04:08:54;10.30;;;6.53;;
14088;SDS011;7120;52.890;6.040;2022-09-21T04:11:20;11.90;;;7.27;;
14088;SDS011;7120;52.890;6.040;2022-09-21T04:13:49;10.57;;;6.50;;
14088;SDS011;7120;52.890;6.040;2022-09-21T04:16:21;10.83;;;6.83;;
14088;SDS011;7120;52.890;6.040;2022-09-21T04:18:48;11.23;;;7.30;;
14088;SDS011;7120;52.890;6.040;2022-09-21T04:21:14;11.40;;;6.77;;
14088;SDS011;7120;52.890;6.040;2022-09-21T04:23:43;15.47;;;7.53;;
14088;SDS011;7120;52.890;6.040;2022-09-21T04:26:25;11.07;;;7.83;;
14088;SDS011;7120;52.890;6.040;2022-09-21T04:28:52;9.23;;;7.13;;
14088;SDS011;7120;52.890;6.040;2022-09-21T04:31:19;15.07;;;7.80;;
14088;SDS011;7120;52.890;6.040;2022-09-21T04:33:51;13.30;;;7.97;;
14088;SDS011;7120;52.890;6.040;2022-09-21T04:36:22;10.50;;;7.43;;
14088;SDS011;7120;52.890;6.040;2022-09-21T04:38:49;14.93;;;8.07;;
14088;SDS011;7120;52.890;6.040;2022-09-21T04:41:15;14.73;;;7.87;;
14088;SDS011;7120;52.890;6.040;2022-09-21T04:43:41;15.67;;;8.03;;
14088;SDS011;7120;52.890;6.040;2022-09-21T04:46:12;11.80;;;7.90;;
14088;SDS011;7120;52.890;6.040;2022-09-21T04:48:39;14.83;;;7.80;;
14088;SDS011;7120;52.890;6.040;2022-09-21T04:51:05;11.90;;;7.03;;
14088;SDS011;7120;52.890;6.040;2022-09-21T04:53:32;9.03;;;6.70;;
14088;SDS011;7120;52.890;6.040;2022-09-21T04:55:59;10.87;;;6.17;;
14088;SDS011;7120;52.890;6.040;2022-09-21T04:58:24;13.27;;;6.67;;
14088;SDS011;7120;52.890;6.040;2022-09-21T05:00:50;10.40;;;6.40;;
14088;SDS011;7120;52.890;6.040;2022-09-21T05:03:20;7.93;;;5.43;;
14088;SDS011;7120;52.890;6.040;2022-09-21T05:05:46;10.00;;;6.27;;
14088;SDS011;7120;52.890;6.040;2022-09-21T05:08:12;8.13;;;6.30;;
14088;SDS011;7120;52.890;6.040;2022-09-21T05:10:38;10.67;;;6.23;;
14088;SDS011;7120;52.890;6.040;2022-09-21T05:13:03;6.97;;;5.80;;
14088;SDS011;7120;52.890;6.040;2022-09-21T05:15:29;7.83;;;6.10;;
14088;SDS011;7120;52.890;6.040;2022-09-21T05:17:54;10.83;;;6.73;;
14088;SDS011;7120;52.890;6.040;2022-09-21T05:20:19;7.03;;;5.53;;
14088;SDS011;7120;52.890;6.040;2022-09-21T05:22:45;8.27;;;5.80;;
14088;SDS011;7120;52.890;6.040;2022-09-21T05:25:10;8.37;;;5.77;;
14088;SDS011;7120;52.890;6.040;2022-09-21T05:27:35;11.33;;;6.17;;
14088;SDS011;7120;52.890;6.040;2022-09-21T05:30:01;9.70;;;6.43;;
14088;SDS011;7120;52.890;6.040;2022-09-21T05:32:48;8.60;;;6.00;;
14088;SDS011;7120;52.890;6.040;2022-09-21T05:35:27;9.77;;;6.37;;
14088;SDS011;7120;52.890;6.040;2022-09-21T05:38:11;9.80;;;6.93;;
14088;SDS011;7120;52.890;6.040;2022-09-21T05:40:44;8.17;;;6.20;;
14088;SDS011;7120;52.890;6.040;2022-09-21T05:43:11;9.90;;;7.33;;
14088;SDS011;7120;52.890;6.040;2022-09-21T05:45:37;10.70;;;7.03;;
14088;SDS011;7120;52.890;6.040;2022-09-21T06:04:11;9.20;;;8.20;;
14088;SDS011;7120;52.890;6.040;2022-09-21T06:06:37;8.87;;;7.83;;
14088;SDS011;7120;52.890;6.040;2022-09-21T06:09:03;10.03;;;8.00;;
14088;SDS011;7120;52.890;6.040;2022-09-21T06:11:28;9.67;;;8.00;;
14088;SDS011;7120;52.890;6.040;2022-09-21T06:13:54;8.37;;;7.43;;
14088;SDS011;7120;52.890;6.040;2022-09-21T06:16:19;9.83;;;8.27;;
14088;SDS011;7120;52.890;6.040;2022-09-21T06:18:44;10.83;;;7.90;;
14088;SDS011;7120;52.890;6.040;2022-09-21T06:21:10;12.83;;;8.83;;
14088;SDS011;7120;52.890;6.040;2022-09-21T06:23:36;15.67;;;8.67;;
14088;SDS011;7120;52.890;6.040;2022-09-21T06:26:02;10.83;;;8.80;;
14088;SDS011;7120;52.890;6.040;2022-09-21T06:28:27;13.07;;;9.20;;
14088;SDS011;7120;52.890;6.040;2022-09-21T06:30:54;11.83;;;8.77;;
14088;SDS011;7120;52.890;6.040;2022-09-21T06:33:20;13.70;;;9.93;;
14088;SDS011;7120;52.890;6.040;2022-09-21T06:35:57;17.57;;;10.53;;
14088;SDS011;7120;52.890;6.040;2022-09-21T06:38:24;18.20;;;11.00;;
14088;SDS011;7120;52.890;6.040;2022-09-21T06:40:51;16.27;;;11.13;;
14088;SDS011;7120;52.890;6.040;2022-09-21T06:43:17;17.77;;;11.03;;
14088;SDS011;7120;52.890;6.040;2022-09-21T06:45:43;19.80;;;11.40;;
14088;SDS011;7120;52.890;6.040;2022-09-21T06:48:17;18.87;;;11.43;;
14088;SDS011;7120;52.890;6.040;2022-09-21T06:50:42;18.10;;;11.30;;
14088;SDS011;7120;52.890;6.040;2022-09-21T06:53:07;19.37;;;11.23;;
14088;SDS011;7120;52.890;6.040;2022-09-21T06:55:33;16.87;;;10.40;;
14088;SDS011;7120;52.890;6.040;2022-09-21T06:58:01;19.00;;;11.97;;
14088;SDS011;7120;52.890;6.040;2022-09-21T07:00:27;20.27;;;11.83;;
14088;SDS011;7120;52.890;6.040;2022-09-21T07:02:53;16.40;;;11.30;;
14088;SDS011;7120;52.890;6.040;2022-09-21T07:05:19;22.03;;;12.07;;
14088;SDS011;7120;52.890;6.040;2022-09-21T07:07:44;20.73;;;10.93;;
14088;SDS011;7120;52.890;6.040;2022-09-21T07:10:09;14.87;;;10.17;;
14088;SDS011;7120;52.890;6.040;2022-09-21T07:12:35;19.70;;;11.90;;
14088;SDS011;7120;52.890;6.040;2022-09-21T07:15:01;15.40;;;11.43;;
14088;SDS011;7120;52.890;6.040;2022-09-21T07:17:34;15.07;;;9.67;;
14088;SDS011;7120;52.890;6.040;2022-09-21T07:20:02;15.93;;;10.47;;
14088;SDS011;7120;52.890;6.040;2022-09-21T07:22:29;18.83;;;10.67;;
14088;SDS011;7120;52.890;6.040;2022-09-21T07:24:55;13.67;;;9.97;;
14088;SDS011;7120;52.890;6.040;2022-09-21T07:27:22;16.43;;;9.67;;
14088;SDS011;7120;52.890;6.040;2022-09-21T07:29:49;12.87;;;10.00;;
14088;SDS011;7120;52.890;6.040;2022-09-21T07:32:14;16.03;;;9.43;;
14088;SDS011;7120;52.890;6.040;2022-09-21T07:34:40;14.37;;;9.30;;
14088;SDS011;7120;52.890;6.040;2022-09-21T07:37:05;11.17;;;9.87;;
14088;SDS011;7120;52.890;6.040;2022-09-21T07:39:31;12.83;;;8.83;;
14088;SDS011;7120;52.890;6.040;2022-09-21T07:41:56;13.07;;;8.17;;
14088;SDS011;7120;52.890;6.040;2022-09-21T07:44:24;13.47;;;8.23;;
14088;SDS011;7120;52.890;6.040;2022-09-21T07:46:50;10.83;;;7.40;;
14088;SDS011;7120;52.890;6.040;2022-09-21T07:49:16;12.63;;;8.50;;
14088;SDS011;7120;52.890;6.040;2022-09-21T07:51:41;13.43;;;7.43;;
14088;SDS011;7120;52.890;6.040;2022-09-21T07:54:09;8.60;;;6.60;;
14088;SDS011;7120;52.890;6.040;2022-09-21T07:56:36;7.20;;;5.67;;
14088;SDS011;7120;52.890;6.040;2022-09-21T07:59:02;6.57;;;4.87;;
14088;SDS011;7120;52.890;6.040;2022-09-21T08:01:32;7.93;;;5.20;;
14088;SDS011;7120;52.890;6.040;2022-09-21T08:03:59;8.17;;;5.00;;
14088;SDS011;7120;52.890;6.040;2022-09-21T08:06:26;6.87;;;3.90;;
14088;SDS011;7120;52.890;6.040;2022-09-21T08:08:54;5.97;;;4.30;;
14088;SDS011;7120;52.890;6.040;2022-09-21T08:11:20;5.50;;;3.37;;
14088;SDS011;7120;52.890;6.040;2022-09-21T08:14:20;7.90;;;4.13;;
14088;SDS011;7120;52.890;6.040;2022-09-21T08:16:43;5.67;;;2.87;;
14088;SDS011;7120;52.890;6.040;2022-09-21T08:19:10;4.57;;;2.97;;
14088;SDS011;7120;52.890;6.040;2022-09-21T08:21:35;5.30;;;2.60;;
14088;SDS011;7120;52.890;6.040;2022-09-21T08:24:01;5.10;;;2.63;;
14088;SDS011;7120;52.890;6.040;2022-09-21T08:26:26;4.67;;;2.10;;
14088;SDS011;7120;52.890;6.040;2022-09-21T08:28:52;4.87;;;2.30;;
14088;SDS011;7120;52.890;6.040;2022-09-21T08:31:19;6.67;;;2.57;;
14088;SDS011;7120;52.890;6.040;2022-09-21T08:33:47;5.20;;;2.30;;
14088;SDS011;7120;52.890;6.040;2022-09-21T08:36:13;4.47;;;2.17;;
14088;SDS011;7120;52.890;6.040;2022-09-21T08:38:39;4.17;;;2.07;;
14088;SDS011;7120;52.890;6.040;2022-09-21T08:42:07;4.43;;;2.20;;
14088;SDS011;7120;52.890;6.040;2022-09-21T08:46:41;3.13;;;2.00;;
14088;SDS011;7120;52.890;6.040;2022-09-21T08:49:13;5.13;;;2.50;;
14088;SDS011;7120;52.890;6.040;2022-09-21T08:51:46;5.20;;;2.80;;
14088;SDS011;7120;52.890;6.040;2022-09-21T08:55:00;5.47;;;2.10;;
14088;SDS011;7120;52.890;6.040;2022-09-21T08:57:30;7.07;;;2.17;;
14088;SDS011;7120;52.890;6.040;2022-09-21T08:59:57;5.97;;;2.33;;
14088;SDS011;7120;52.890;6.040;2022-09-21T09:05:54;4.93;;;2.30;;
14088;SDS011;7120;52.890;6.040;2022-09-21T09:08:44;4.37;;;2.10;;
14088;SDS011;7120;52.890;6.040;2022-09-21T09:22:18;5.33;;;1.87;;
14088;SDS011;7120;52.890;6.040;2022-09-21T09:24:50;3.90;;;1.93;;
14088;SDS011;7120;52.890;6.040;2022-09-21T09:27:24;3.87;;;1.60;;
14088;SDS011;7120;52.890;6.040;2022-09-21T09:29:58;3.27;;;1.60;;
14088;SDS011;7120;52.890;6.040;2022-09-21T09:32:26;4.50;;;1.20;;
14088;SDS011;7120;52.890;6.040;2022-09-21T09:38:03;3.37;;;1.47;;
14088;SDS011;7120;52.890;6.040;2022-09-21T09:41:02;2.17;;;1.20;;
14088;SDS011;7120;52.890;6.040;2022-09-21T09:48:52;5.00;;;1.53;;
14088;SDS011;7120;52.890;6.040;2022-09-21T09:51:38;3.77;;;1.50;;
14088;SDS011;7120;52.890;6.040;2022-09-21T09:54:04;5.07;;;1.77;;
14088;SDS011;7120;52.890;6.040;2022-09-21T09:56:36;9.77;;;3.80;;
14088;SDS011;7120;52.890;6.040;2022-09-21T09:59:02;16.50;;;7.47;;
14088;SDS011;7120;52.890;6.040;2022-09-21T10:01:43;18.47;;;12.23;;
14088;SDS011;7120;52.890;6.040;2022-09-21T10:04:14;7.93;;;6.60;;
14088;SDS011;7120;52.890;6.040;2022-09-21T10:06:42;4.73;;;3.70;;
14088;SDS011;7120;52.890;6.040;2022-09-21T10:09:18;2.33;;;1.63;;
14088;SDS011;7120;52.890;6.040;2022-09-21T10:11:49;4.80;;;2.27;;
14088;SDS011;7120;52.890;6.040;2022-09-21T10:14:18;5.40;;;2.63;;
14088;SDS011;7120;52.890;6.040;2022-09-21T10:16:47;3.97;;;1.63;;
14088;SDS011;7120;52.890;6.040;2022-09-21T10:19:25;3.57;;;1.50;;
14088;SDS011;7120;52.890;6.040;2022-09-21T10:21:55;2.53;;;0.90;;
14088;SDS011;7120;52.890;6.040;2022-09-21T10:24:27;3.43;;;1.63;;
14088;SDS011;7120;52.890;6.040;2022-09-21T10:27:02;8.77;;;4.90;;
14088;SDS011;7120;52.890;6.040;2022-09-21T10:29:29;4.77;;;1.73;;
14088;SDS011;7120;52.890;6.040;2022-09-21T10:34:23;3.57;;;2.77;;
14088;SDS011;7120;52.890;6.040;2022-09-21T10:36:50;4.70;;;1.80;;
14088;SDS011;7120;52.890;6.040;2022-09-21T10:41:49;5.03;;;1.30;;
14088;SDS011;7120;52.890;6.040;2022-09-21T10:44:17;3.67;;;1.40;;
14088;SDS011;7120;52.890;6.040;2022-09-21T10:46:44;4.60;;;1.07;;
14088;SDS011;7120;52.890;6.040;2022-09-21T10:49:27;4.77;;;1.47;;
14088;SDS011;7120;52.890;6.040;2022-09-21T10:51:55;4.77;;;1.30;;
14088;SDS011;7120;52.890;6.040;2022-09-21T10:54:27;4.20;;;1.03;;
14088;SDS011;7120;52.890;6.040;2022-09-21T10:56:58;4.47;;;1.33;;
14088;SDS011;7120;52.890;6.040;2022-09-21T10:59:30;3.90;;;0.93;;
14088;SDS011;7120;52.890;6.040;2022-09-21T11:01:58;5.30;;;1.10;;
14088;SDS011;7120;52.890;6.040;2022-09-21T11:07:19;3.63;;;1.30;;
14088;SDS011;7120;52.890;6.040;2022-09-21T11:15:19;2.93;;;1.20;;
14088;SDS011;7120;52.890;6.040;2022-09-21T11:17:58;3.80;;;1.10;;
14088;SDS011;7120;52.890;6.040;2022-09-21T11:23:20;2.77;;;1.17;;
14088;SDS011;7120;52.890;6.040;2022-09-21T11:43:13;3.90;;;1.30;;
14088;SDS011;7120;52.890;6.040;2022-09-21T11:48:53;3.80;;;1.20;;
14088;SDS011;7120;52.890;6.040;2022-09-21T12:16:13;3.30;;;1.80;;
14088;SDS011;7120;52.890;6.040;2022-09-21T12:18:47;2.13;;;1.37;;
14088;SDS011;7120;52.890;6.040;2022-09-21T12:21:30;3.47;;;1.60;;
14088;SDS011;7120;52.890;6.040;2022-09-21T12:24:04;3.47;;;1.47;;
14088;SDS011;7120;52.890;6.040;2022-09-21T12:26:40;4.90;;;1.73;;
14088;SDS011;7120;52.890;6.040;2022-09-21T12:32:00;6.22;;;2.42;;
14088;SDS011;7120;52.890;6.040;2022-09-21T12:34:41;5.18;;;2.22;;
14088;SDS011;7120;52.890;6.040;2022-09-21T12:37:13;6.82;;;2.65;;
14088;SDS011;7120;52.890;6.040;2022-09-21T12:39:48;7.28;;;2.40;;
14088;SDS011;7120;52.890;6.040;2022-09-21T12:42:42;6.40;;;2.97;;
14088;SDS011;7120;52.890;6.040;2022-09-21T12:47:55;5.25;;;2.70;;
14088;SDS011;7120;52.890;6.040;2022-09-21T12:50:45;4.55;;;2.50;;
14088;SDS011;7120;52.890;6.040;2022-09-21T12:53:22;4.50;;;2.58;;
14088;SDS011;7120;52.890;6.040;2022-09-21T12:55:55;6.00;;;2.80;;
14088;SDS011;7120;52.890;6.040;2022-09-21T12:58:42;5.85;;;2.30;;
14088;SDS011;7120;52.890;6.040;2022-09-21T13:06:35;5.05;;;2.40;;
14088;SDS011;7120;52.890;6.040;2022-09-21T13:09:13;4.25;;;1.80;;
14088;SDS011;7120;52.890;6.040;2022-09-21T13:11:48;4.18;;;1.63;;
14088;SDS011;7120;52.890;6.040;2022-09-21T13:14:19;3.33;;;1.77;;
14088;SDS011;7120;52.890;6.040;2022-09-21T13:16:52;2.88;;;1.70;;
14088;SDS011;7120;52.890;6.040;2022-09-21T13:19:22;3.42;;;1.60;;
14088;SDS011;7120;52.890;6.040;2022-09-21T13:24:56;4.90;;;1.42;;
14088;SDS011;7120;52.890;6.040;2022-09-21T13:33:37;6.07;;;2.17;;
14088;SDS011;7120;52.890;6.040;2022-09-21T13:36:09;3.72;;;1.58;;
14088;SDS011;7120;52.890;6.040;2022-09-21T13:39:02;3.80;;;1.45;;
14088;SDS011;7120;52.890;6.040;2022-09-21T13:41:33;4.32;;;1.75;;
14088;SDS011;7120;52.890;6.040;2022-09-21T13:44:01;4.15;;;1.52;;
14088;SDS011;7120;52.890;6.040;2022-09-21T13:54:26;4.17;;;1.30;;
14088;SDS011;7120;52.890;6.040;2022-09-21T13:57:14;3.07;;;1.13;;
14088;SDS011;7120;52.890;6.040;2022-09-21T13:59:41;2.23;;;1.10;;
14088;SDS011;7120;52.890;6.040;2022-09-21T14:02:31;2.83;;;1.40;;
14088;SDS011;7120;52.890;6.040;2022-09-21T14:05:01;3.93;;;1.60;;
14088;SDS011;7120;52.890;6.040;2022-09-21T14:07:49;4.60;;;1.70;;
14088;SDS011;7120;52.890;6.040;2022-09-21T14:10:19;3.57;;;1.70;;
14088;SDS011;7120;52.890;6.040;2022-09-21T14:12:47;3.80;;;1.40;;
14088;SDS011;7120;52.890;6.040;2022-09-21T14:17:43;2.80;;;1.30;;
14088;SDS011;7120;52.890;6.040;2022-09-21T14:20:29;3.90;;;1.37;;
14088;SDS011;7120;52.890;6.040;2022-09-21T14:25:55;3.57;;;1.67;;
14088;SDS011;7120;52.890;6.040;2022-09-21T14:31:16;6.00;;;1.43;;
14088;SDS011;7120;52.890;6.040;2022-09-21T14:33:49;4.30;;;1.30;;
14088;SDS011;7120;52.890;6.040;2022-09-21T14:36:21;4.77;;;1.63;;
14088;SDS011;7120;52.890;6.040;2022-09-21T14:38:53;1.63;;;1.10;;
14088;SDS011;7120;52.890;6.040;2022-09-21T14:41:23;4.03;;;1.23;;
14088;SDS011;7120;52.890;6.040;2022-09-21T14:43:56;7.07;;;1.20;;
14088;SDS011;7120;52.890;6.040;2022-09-21T14:46:28;3.77;;;1.13;;
14088;SDS011;7120;52.890;6.040;2022-09-21T15:02:38;4.50;;;1.27;;
14088;SDS011;7120;52.890;6.040;2022-09-21T15:21:39;4.17;;;1.27;;
14088;SDS011;7120;52.890;6.040;2022-09-21T15:24:50;4.40;;;1.50;;
14088;SDS011;7120;52.890;6.040;2022-09-21T15:27:13;3.50;;;1.50;;
14088;SDS011;7120;52.890;6.040;2022-09-21T15:29:45;7.93;;;2.03;;
14088;SDS011;7120;52.890;6.040;2022-09-21T15:35:05;4.17;;;1.60;;
14088;SDS011;7120;52.890;6.040;2022-09-21T15:37:52;3.27;;;1.07;;
14088;SDS011;7120;52.890;6.040;2022-09-21T15:40:20;3.47;;;1.33;;
14088;SDS011;7120;52.890;6.040;2022-09-21T15:48:29;4.80;;;2.03;;
14088;SDS011;7120;52.890;6.040;2022-09-21T15:53:43;154.27;;;138.90;;
14088;SDS011;7120;52.890;6.040;2022-09-21T15:56:20;14.63;;;12.73;;
14088;SDS011;7120;52.890;6.040;2022-09-21T15:58:49;11.20;;;7.70;;
14088;SDS011;7120;52.890;6.040;2022-09-21T16:01:18;3.37;;;1.47;;
14088;SDS011;7120;52.890;6.040;2022-09-21T16:03:47;4.40;;;2.97;;
14088;SDS011;7120;52.890;6.040;2022-09-21T16:06:27;3.83;;;1.90;;
14088;SDS011;7120;52.890;6.040;2022-09-21T16:09:03;4.27;;;1.50;;
14088;SDS011;7120;52.890;6.040;2022-09-21T16:11:48;5.90;;;3.17;;
14088;SDS011;7120;52.890;6.040;2022-09-21T16:14:14;2.67;;;1.60;;
14088;SDS011;7120;52.890;6.040;2022-09-21T16:22:29;4.83;;;1.93;;
14088;SDS011;7120;52.890;6.040;2022-09-21T16:25:01;4.63;;;0.90;;
14088;SDS011;7120;52.890;6.040;2022-09-21T16:27:47;5.73;;;1.27;;
14088;SDS011;7120;52.890;6.040;2022-09-21T16:38:49;3.73;;;1.30;;
14088;SDS011;7120;52.890;6.040;2022-09-21T16:41:19;3.10;;;1.20;;
14088;SDS011;7120;52.890;6.040;2022-09-21T16:43:46;3.43;;;1.27;;
14088;SDS011;7120;52.890;6.040;2022-09-21T16:46:13;3.43;;;0.83;;
14088;SDS011;7120;52.890;6.040;2022-09-21T16:48:39;2.10;;;1.23;;
14088;SDS011;7120;52.890;6.040;2022-09-21T16:51:07;3.13;;;1.20;;
14088;SDS011;7120;52.890;6.040;2022-09-21T16:53:38;6.77;;;1.47;;
14088;SDS011;7120;52.890;6.040;2022-09-21T16:56:04;3.80;;;1.23;;
14088;SDS011;7120;52.890;6.040;2022-09-21T16:58:30;10.60;;;3.73;;
14088;SDS011;7120;52.890;6.040;2022-09-21T17:00:56;17.57;;;15.77;;
14088;SDS011;7120;52.890;6.040;2022-09-21T17:03:22;8.97;;;6.90;;
14088;SDS011;7120;52.890;6.040;2022-09-21T17:05:47;5.53;;;3.50;;
14088;SDS011;7120;52.890;6.040;2022-09-21T17:08:12;5.93;;;2.63;;
14088;SDS011;7120;52.890;6.040;2022-09-21T17:10:43;5.20;;;2.07;;
14088;SDS011;7120;52.890;6.040;2022-09-21T17:13:10;2.43;;;1.47;;
14088;SDS011;7120;52.890;6.040;2022-09-21T17:15:37;4.73;;;2.23;;
14088;SDS011;7120;52.890;6.040;2022-09-21T17:18:09;5.33;;;2.50;;
14088;SDS011;7120;52.890;6.040;2022-09-21T17:20:40;4.97;;;2.17;;
14088;SDS011;7120;52.890;6.040;2022-09-21T17:23:07;4.73;;;2.20;;
14088;SDS011;7120;52.890;6.040;2022-09-21T17:25:33;2.97;;;2.00;;
14088;SDS011;7120;52.890;6.040;2022-09-21T17:28:00;4.77;;;1.63;;
14088;SDS011;7120;52.890;6.040;2022-09-21T17:30:28;5.43;;;1.40;;
14088;SDS011;7120;52.890;6.040;2022-09-21T17:32:53;6.37;;;1.67;;
14088;SDS011;7120;52.890;6.040;2022-09-21T17:37:56;4.87;;;1.50;;
14088;SDS011;7120;52.890;6.040;2022-09-21T17:40:22;6.63;;;3.50;;
14088;SDS011;7120;52.890;6.040;2022-09-21T17:42:48;6.13;;;3.77;;
14088;SDS011;7120;52.890;6.040;2022-09-21T17:48:11;27.77;;;12.80;;
14088;SDS011;7120;52.890;6.040;2022-09-21T17:50:41;25.43;;;12.23;;
14088;SDS011;7120;52.890;6.040;2022-09-21T17:53:07;12.90;;;6.77;;
14088;SDS011;7120;52.890;6.040;2022-09-21T17:55:53;7.73;;;3.47;;
14088;SDS011;7120;52.890;6.040;2022-09-21T18:01:30;5.37;;;2.20;;
14088;SDS011;7120;52.890;6.040;2022-09-21T18:03:57;3.73;;;1.57;;
14088;SDS011;7120;52.890;6.040;2022-09-21T18:06:22;4.07;;;1.87;;
14088;SDS011;7120;52.890;6.040;2022-09-21T18:08:48;5.50;;;1.70;;
14088;SDS011;7120;52.890;6.040;2022-09-21T18:25:13;34.53;;;17.40;;
14088;SDS011;7120;52.890;6.040;2022-09-21T18:27:40;32.27;;;15.10;;
14088;SDS011;7120;52.890;6.040;2022-09-21T18:30:09;34.17;;;16.23;;
14088;SDS011;7120;52.890;6.040;2022-09-21T18:35:39;18.13;;;13.00;;
14088;SDS011;7120;52.890;6.040;2022-09-21T18:49:52;12.53;;;7.60;;
14088;SDS011;7120;52.890;6.040;2022-09-21T18:52:36;18.60;;;12.87;;
14088;SDS011;7120;52.890;6.040;2022-09-21T18:55:17;22.00;;;16.33;;
14088;SDS011;7120;52.890;6.040;2022-09-21T18:57:55;24.30;;;17.13;;
14088;SDS011;7120;52.890;6.040;2022-09-21T19:00:23;20.07;;;15.13;;
14088;SDS011;7120;52.890;6.040;2022-09-21T19:02:57;18.47;;;12.80;;
14088;SDS011;7120;52.890;6.040;2022-09-21T19:05:24;21.90;;;16.13;;
14088;SDS011;7120;52.890;6.040;2022-09-21T19:10:36;16.20;;;13.57;;
14088;SDS011;7120;52.890;6.040;2022-09-21T19:15:56;63.77;;;47.57;;
14088;SDS011;7120;52.890;6.040;2022-09-21T19:18:29;78.70;;;59.67;;
14088;SDS011;7120;52.890;6.040;2022-09-21T19:24:17;72.60;;;53.97;;
14088;SDS011;7120;52.890;6.040;2022-09-21T19:32:06;158.70;;;109.63;;
14088;SDS011;7120;52.890;6.040;2022-09-21T19:34:37;124.83;;;90.53;;
14088;SDS011;7120;52.890;6.040;2022-09-21T19:37:03;109.70;;;74.90;;
14088;SDS011;7120;52.890;6.040;2022-09-21T19:39:28;89.33;;;65.47;;
14088;SDS011;7120;52.890;6.040;2022-09-21T19:47:45;33.87;;;24.63;;
14088;SDS011;7120;52.890;6.040;2022-09-21T19:52:41;20.90;;;13.37;;
14088;SDS011;7120;52.890;6.040;2022-09-21T19:55:17;13.63;;;9.60;;
14088;SDS011;7120;52.890;6.040;2022-09-21T19:58:03;16.60;;;11.07;;
14088;SDS011;7120;52.890;6.040;2022-09-21T20:00:52;18.43;;;13.83;;